• Join FlightAware (Why Join?)
  • Login
  • US Flag 
08:32PM EDT


 

Airport Tracker/Info


-or-


 

Live Flight TrackerFlight Track Log ✈ ASQ5685 ✈ 24-Apr-2013 ✈ KBTV - KIAD

Flight Track Log - Related Links

Times and Time Zones

All times are in EDT time to prevent confusion due to time zone crossing. See the ASQ5685 flight status page for this flight to view local times or setup timezone preferences in your user account.

Time Position Orientation Groundspeed Altitude Reporting Facility
EDT Latitude Longitude Course Direction KTS MPH feet Rate Location/Type
02:47PM 44.3447 -73.1164 195° South 258 297 6,200  Level Boston Center
02:48PM 44.2719 -73.0983 170° South 258 297 9,100 2,460 Climbing Boston Center
02:49PM 44.0324 -73.3138 196° South  Level FlightAware Approximate
02:49PM 44.1989 -73.1206 192° South 258 297 11,200  Level Boston Center
02:50PM 43.9457 -73.3484 196° South  Level FlightAware Approximate
02:50PM 44.1153 -73.1600 199° South 299 344 12,600  Level Boston Center
02:51PM 43.8588 -73.3819 195° South  Level FlightAware Approximate
02:51PM 44.0253 -73.2053 200° South 336 387 14,000  Level Boston Center
02:52PM 43.7717 -73.4141 195° South  Level FlightAware Approximate
02:52PM 43.9314 -73.2472 198° South 356 410 14,000  Level Boston Center
02:53PM 43.8331 -73.2950 199° South 370 426 14,400 840 Climbing Boston Center
02:54PM 43.7347 -73.3394 198° South 370 426 15,700 1,380 Climbing Boston Center
02:55PM 43.6344 -73.3867 199° South 378 435 17,200 1,500 Climbing Boston Center
02:56PM 43.5361 -73.4339 199° South 378 435 18,700 1,320 Climbing Boston Center
02:57PM 43.4378 -73.4836 200° South 378 435 19,900 1,020 Climbing Boston Center
02:58PM 43.3353 -73.5247 196° South 378 435 21,000 1,140 Climbing Boston Center
02:59PM 43.2158 -73.5825 199° South 383 441 22,500 1,200 Climbing Boston Center
03:00PM 43.1236 -73.6292 200° South 391 450 23,400 1,020 Climbing Boston Center
03:01PM 43.0253 -73.6756 199° South 386 444 24,600 1,080 Climbing Boston Center
03:02PM 42.9225 -73.7244 199° South 386 444 25,600 660 Climbing Boston Center
03:03PM 42.8156 -73.7733 199° South 391 450 26,000 540 Climbing Boston Center
03:04PM 42.7108 -73.8189 198° South 398 458 26,700 600 Climbing Boston Center
03:05PM 42.6250 -73.8594 199° South 398 458 27,300 600 Climbing Boston Center
03:06PM 42.5117 -73.9131 199° South 398 458 28,000 300 Climbing Boston Center
03:07PM 42.3839 -73.9692 198° South 404 465 28,000  Level Boston Center
03:08PM 42.2769 -74.0169 198° South 410 472 28,000  Level Boston Center
03:09PM 42.1619 -74.0422 189° South 410 472 28,000  Level Boston Center
03:10PM 42.0472 -74.0475 182° South 415 478 28,000  Level Boston Center
03:11PM 41.9303 -74.0531 182° South 415 478 28,000  Level Boston Center
03:13PM 41.6800 -74.0650 182° South 413 475 28,000  Level New York Center
03:14PM 41.5797 -74.0711 183° South 413 475 28,000  Level New York Center
03:15PM 41.4653 -74.0739 181° South 408 470 28,000  Level New York Center
03:16PM 41.3519 -74.1042 191° South 408 470 28,000  Level New York Center
03:17PM 41.2681 -74.1994 220° Southwest 383 441 28,000  Level New York Center
03:18PM 41.1800 -74.2914 218° Southwest 400 460 28,000  Level New York Center
03:19PM 41.0939 -74.3833 219° Southwest 405 466 28,000  Level New York Center
03:20PM 41.0075 -74.4775 219° Southwest 405 466 28,000  Level New York Center
03:21PM 40.9233 -74.5719 220° Southwest 405 466 28,000  Level New York Center
03:22PM 40.8714 -74.6925 240° Southwest 390 449 28,000  Level New York Center
03:23PM 40.8314 -74.8272 249° West 390 449 28,000  Level New York Center
03:24PM 40.7894 -74.9617 248° West 396 456 28,000  Level New York Center
03:25PM 40.7492 -75.0936 248° West 396 456 28,000  Level New York Center
03:26PM 40.7089 -75.2250 248° West 396 456 28,000  Level New York Center
03:27PM 40.6683 -75.3567 248° West 396 456 28,000 -720 Level New York Center
03:28PM 40.6156 -75.4842 241° Southwest 391 450 26,600 -1,800 Descending New York Center
03:29PM 40.5600 -75.6197 242° Southwest 405 466 24,500 -2,100 Descending New York Center
03:30PM 40.5025 -75.7494 240° Southwest 410 472 22,400 -2,220 Descending New York Center
03:31PM 40.4450 -75.8761 239° Southwest 410 472 20,100 -1,200 Descending New York Center
03:32PM 40.3672 -75.9822 226° Southwest 390 449 20,000 -60 Descending New York Center
03:33PM 40.2989 -76.0669 223° Southwest 367 422 20,000  Level New York Center
03:34PM 40.2283 -76.1539 223° Southwest 351 404 20,000  Level New York Center
03:35PM 40.1708 -76.2283 225° Southwest 339 390 20,000 -180 Level New York Center
03:36PM 40.1036 -76.3236 227° Southwest 345 397 19,700 -840 Descending New York Center
03:38PM 40.0167 -76.5167 240° Southwest 370 426 17,800 -1,140 Descending Potomac TRACON
03:39PM 39.9667 -76.6333 241° Southwest 368 423 16,800 -1,020 Descending Potomac TRACON
03:40PM 39.9167 -76.7333 237° Southwest 342 394 15,800 -900 Descending Potomac TRACON
03:41PM 39.8667 -76.8167 232° Southwest 271 312 15,000 -540 Descending Potomac TRACON
03:42PM 39.8333 -76.9000 243° Southwest 255 293 14,800 -540 Descending Potomac TRACON
03:43PM 39.8000 -76.9833 243° Southwest 256 295 14,000 -840 Descending Potomac TRACON
03:44PM 39.7667 -77.0500 237° Southwest 250 288 13,200 -1,200 Descending Potomac TRACON
03:45PM 39.7333 -77.1333 243° Southwest 240 276 11,600 -1,980 Descending Potomac TRACON
03:46PM 39.7000 -77.2000 237° Southwest 243 280 9,300 -1,800 Descending Potomac TRACON
03:47PM 39.6667 -77.2833 243° Southwest 241 277 8,000 -660 Descending Potomac TRACON
03:48PM 39.6167 -77.3500 226° Southwest 241 277 8,000  Level Potomac TRACON
03:48PM 39.5667 -77.3833 207° Southwest 240 276 8,000 -840 Level Potomac TRACON
03:50PM 39.5000 -77.4167 201° Southwest 248 285 6,500 -1,680 Descending Potomac TRACON
03:51PM 39.4333 -77.4333 191° South 237 273 4,700 -1,260 Descending Potomac TRACON
03:52PM 39.3667 -77.4333 180° South 229 264 4,000 -360 Descending Potomac TRACON
03:53PM 39.3167 -77.4333 180° South 190 219 4,000 -360 Level Potomac TRACON
03:53PM 39.2667 -77.4333 180° South 178 205 3,400 -600 Descending Potomac TRACON
03:54PM 39.2167 -77.4333 180° South 184 212 2,900 -240 Descending Potomac TRACON
03:55PM 39.1833 -77.4333 180° South 151 174 3,000  Climbing Potomac TRACON
03:56PM 39.1333 -77.4333 180° South 162 186 3,000 -60 Level Potomac TRACON
03:57PM 39.0833 -77.4333 180° South 163 188 2,900 -480 Descending Potomac TRACON
03:58PM 39.0500 -77.4333 180° South 150 173 2,100 -840 Descending Potomac TRACON